Time;durP1;ratioP1;P1;durP2;ratioP2;P2;SDS_P1;SDS_P2;PMS_P1;PMS_P2;Temp;Humidity;BMP_temperature;BMP_pressure;BME280_temperature;BME280_humidity;BME280_pressure;Samples;Min_cycle;Max_cycle;Signal;HPM_P1;HPM_P2
2023/10/16 00:00:41;;;;;;;6.43;3.28;;;7.30;89.60;;;;;;5054872;28;20021;-36
2023/10/16 00:03:07;;;;;;;7.32;3.70;;;7.30;89.60;;;;;;5054693;28;20086;-34
2023/10/16 00:05:51;;;;;;;7.30;3.72;;;7.30;89.70;;;;;;5054638;28;20381;-36
2023/10/16 00:08:20;;;;;;;4.10;3.40;;;7.30;89.70;;;;;;5054668;28;20025;-35
2023/10/16 00:11:01;;;;;;;4.40;3.30;;;7.40;89.80;;;;;;5054896;28;20036;-35
2023/10/16 00:13:27;;;;;;;5.05;3.70;;;7.40;89.70;;;;;;5054488;28;20484;-34
2023/10/16 00:15:55;;;;;;;4.70;3.63;;;7.40;89.70;;;;;;5054497;28;20025;-36
2023/10/16 00:18:23;;;;;;;4.85;3.67;;;7.40;89.60;;;;;;5054336;28;20029;-34
2023/10/16 00:20:55;;;;;;;6.15;3.40;;;7.50;89.70;;;;;;5054324;28;20051;-34
2023/10/16 00:23:30;;;;;;;4.25;3.30;;;7.50;89.70;;;;;;5054431;28;20021;-34
2023/10/16 00:25:56;;;;;;;5.05;3.42;;;7.50;89.60;;;;;;5054093;28;20100;-34
2023/10/16 00:28:22;;;;;;;4.72;3.38;;;7.50;89.50;;;;;;5054049;28;20045;-35
2023/10/16 00:30:49;;;;;;;5.93;4.05;;;7.60;89.60;;;;;;5052821;28;20031;-35
2023/10/16 00:33:14;;;;;;;5.10;3.63;;;7.60;89.60;;;;;;5054136;28;20415;-36
2023/10/16 00:35:50;;;;;;;6.30;3.60;;;7.60;89.60;;;;;;5054175;28;20032;-31
2023/10/16 00:38:19;;;;;;;4.65;3.10;;;7.50;89.60;;;;;;5054079;28;20074;-35
2023/10/16 00:40:51;;;;;;;4.93;3.33;;;7.50;89.50;;;;;;5053970;28;20021;-36
2023/10/16 00:43:21;;;;;;;4.32;3.20;;;7.50;89.60;;;;;;5053903;28;20087;-35
2023/10/16 00:45:59;;;;;;;4.35;3.55;;;7.50;89.80;;;;;;5053800;28;20021;-35
2023/10/16 00:48:25;;;;;;;5.00;3.70;;;7.50;89.80;;;;;;5053745;28;20025;-35
2023/10/16 00:50:51;;;;;;;4.03;3.30;;;7.50;89.80;;;;;;5053876;28;20036;-35
2023/10/16 00:53:21;;;;;;;4.72;3.05;;;7.50;89.80;;;;;;5053744;28;20017;-36
2023/10/16 00:55:51;;;;;;;5.65;3.78;;;7.50;89.80;;;;;;5053555;28;20384;-35
2023/10/16 00:58:17;;;;;;;3.95;3.50;;;7.50;89.90;;;;;;5053737;28;20049;-35
2023/10/16 01:00:46;;;;;;;4.05;3.42;;;7.50;89.90;;;;;;5053685;28;20143;-36
2023/10/16 01:03:13;;;;;;;5.22;3.17;;;7.50;89.90;;;;;;5053493;28;20017;-35
2023/10/16 01:05:42;;;;;;;4.13;3.08;;;7.50;89.90;;;;;;5053562;28;20025;-32
2023/10/16 01:08:09;;;;;;;4.43;3.50;;;7.40;89.80;;;;;;5053801;28;20025;-35
2023/10/16 01:10:37;;;;;;;4.75;3.20;;;7.40;89.90;;;;;;5053699;28;20388;-36
2023/10/16 01:13:08;;;;;;;5.63;3.50;;;7.40;90.00;;;;;;5053605;28;20028;-35
2023/10/16 01:15:34;;;;;;;5.75;3.28;;;7.40;90.00;;;;;;5053557;28;20159;-36
2023/10/16 01:18:00;;;;;;;5.95;3.33;;;7.40;90.00;;;;;;5053611;28;20067;-35
2023/10/16 01:20:25;;;;;;;4.28;3.53;;;7.30;90.00;;;;;;5053463;28;20494;-36
2023/10/16 01:22:52;;;;;;;4.55;3.20;;;7.30;90.10;;;;;;5053474;28;20369;-35
2023/10/16 01:25:18;;;;;;;5.72;3.20;;;7.30;90.10;;;;;;5053263;28;20491;-34
2023/10/16 01:27:44;;;;;;;4.70;3.30;;;7.30;90.10;;;;;;5053372;28;20056;-36
2023/10/16 01:30:10;;;;;;;6.13;3.70;;;7.30;90.10;;;;;;5053188;28;20065;-36
2023/10/16 01:32:39;;;;;;;6.20;3.63;;;7.30;90.10;;;;;;5051773;28;20436;-35
2023/10/16 01:35:08;;;;;;;5.18;3.17;;;7.30;90.20;;;;;;5053083;28;20029;-36
2023/10/16 01:37:41;;;;;;;4.00;3.60;;;7.40;90.20;;;;;;5052972;28;20021;-35
2023/10/16 01:42:42;;;;;;;5.80;3.60;;;7.40;90.20;;;;;;5053288;28;20039;-35
2023/10/16 01:45:08;;;;;;;4.03;3.38;;;7.50;90.10;;;;;;5052876;28;20020;-34
2023/10/16 01:47:34;;;;;;;5.25;3.55;;;7.50;90.10;;;;;;5052639;28;20021;-36
2023/10/16 01:50:01;;;;;;;4.82;3.20;;;7.50;90.10;;;;;;5052823;28;20044;-35
2023/10/16 01:52:27;;;;;;;5.57;3.20;;;7.50;90.10;;;;;;5052806;28;20036;-35
2023/10/16 01:54:53;;;;;;;6.72;3.33;;;7.50;90.10;;;;;;5052633;28;20029;-35
2023/10/16 01:57:21;;;;;;;4.32;3.10;;;7.50;90.10;;;;;;5052767;28;20021;-36
2023/10/16 01:59:51;;;;;;;4.68;3.40;;;7.40;90.10;;;;;;5052785;28;20017;-36
2023/10/16 02:02:17;;;;;;;4.97;3.20;;;7.40;90.20;;;;;;5052708;28;20100;-36
2023/10/16 02:04:43;;;;;;;5.78;3.33;;;7.40;90.20;;;;;;5052738;28;20021;-35
2023/10/16 02:07:09;;;;;;;5.32;3.38;;;7.40;90.20;;;;;;5052525;28;20381;-36
2023/10/16 02:09:39;;;;;;;4.50;3.50;;;7.40;90.30;;;;;;5052595;28;20024;-35
2023/10/16 02:12:10;;;;;;;3.78;3.03;;;7.40;90.30;;;;;;5051364;28;20025;-35
2023/10/16 02:14:39;;;;;;;4.60;3.45;;;7.40;90.30;;;;;;5051862;28;20033;-35
2023/10/16 02:17:05;;;;;;;4.90;3.10;;;7.40;90.20;;;;;;5052487;28;20063;-36
2023/10/16 02:19:31;;;;;;;5.03;3.30;;;7.50;90.20;;;;;;5052295;28;20021;-33
2023/10/16 02:21:58;;;;;;;4.80;3.30;;;7.50;90.20;;;;;;5052306;28;20031;-35
2023/10/16 02:24:24;;;;;;;4.75;2.92;;;7.60;90.20;;;;;;5052510;28;20411;-36
2023/10/16 02:27:02;;;;;;;5.00;3.03;;;7.60;90.20;;;;;;5052074;28;20025;-33
2023/10/16 02:29:31;;;;;;;4.63;3.20;;;7.70;90.20;;;;;;5052183;28;20102;-34
2023/10/16 02:31:58;;;;;;;5.40;2.90;;;7.70;90.10;;;;;;5052335;28;20017;-35
2023/10/16 02:34:23;;;;;;;3.25;2.90;;;7.70;90.10;;;;;;5052075;28;20060;-35
2023/10/16 02:36:54;;;;;;;3.92;3.33;;;7.70;90.10;;;;;;5052495;28;20048;-35
2023/10/16 02:39:35;;;;;;;4.05;3.10;;;7.70;90.20;;;;;;5052392;28;20024;-34
2023/10/16 02:42:14;;;;;;;3.97;2.95;;;7.70;90.10;;;;;;5052543;28;20100;-33
2023/10/16 02:44:45;;;;;;;4.78;3.10;;;7.70;90.40;;;;;;5050854;28;20028;-35
2023/10/16 02:47:13;;;;;;;5.10;3.10;;;7.80;90.10;;;;;;5051947;28;20108;-34
2023/10/16 02:49:47;;;;;;;3.88;3.03;;;7.80;90.10;;;;;;5052207;28;20032;-35
2023/10/16 02:52:19;;;;;;;4.15;2.58;;;7.80;90.10;;;;;;5052062;28;20025;-34
2023/10/16 02:54:46;;;;;;;3.30;2.85;;;7.90;90.10;;;;;;5050621;28;20104;-36
2023/10/16 02:57:12;;;;;;;5.35;2.70;;;7.90;90.10;;;;;;5051943;28;20441;-34
2023/10/16 02:59:45;;;;;;;4.88;2.70;;;7.90;90.10;;;;;;5051977;28;20028;-35
2023/10/16 03:02:22;;;;;;;6.88;2.97;;;7.90;90.10;;;;;;5052074;28;20358;-35
2023/10/16 03:04:51;;;;;;;3.47;2.67;;;7.80;90.10;;;;;;5051976;28;20025;-35
2023/10/16 03:07:20;;;;;;;3.08;2.70;;;7.80;90.20;;;;;;5051916;28;20108;-36
2023/10/16 03:09:47;;;;;;;3.33;2.40;;;7.80;90.20;;;;;;5052018;28;20025;-36
2023/10/16 03:12:15;;;;;;;5.20;2.65;;;7.70;90.30;;;;;;5051774;28;20070;-36
2023/10/16 03:14:48;;;;;;;3.55;2.70;;;7.70;90.30;;;;;;5052105;28;20030;-36
2023/10/16 03:19:56;;;;;;;6.22;2.65;;;7.70;90.30;;;;;;5052160;28;20036;-36
2023/10/16 03:22:22;;;;;;;5.13;2.67;;;7.60;90.30;;;;;;5051730;28;20029;-36
2023/10/16 03:24:47;;;;;;;3.40;2.70;;;7.60;90.40;;;;;;5051755;28;20078;-36
2023/10/16 03:27:29;;;;;;;4.07;2.53;;;7.70;90.40;;;;;;5054622;28;20029;-35
2023/10/16 03:29:55;;;;;;;3.72;2.55;;;7.60;90.40;;;;;;5055456;28;20056;-36
2023/10/16 03:32:23;;;;;;;4.22;2.63;;;7.60;90.40;;;;;;5055301;28;20485;-33
2023/10/16 03:34:49;;;;;;;4.38;2.83;;;7.70;90.40;;;;;;5055372;28;20033;-35
2023/10/16 03:37:16;;;;;;;3.40;2.70;;;7.70;90.40;;;;;;5055189;28;20071;-36
2023/10/16 03:39:44;;;;;;;4.68;2.90;;;7.80;90.30;;;;;;5055336;28;20497;-34
2023/10/16 03:42:10;;;;;;;4.18;2.70;;;7.80;90.30;;;;;;5055290;28;20431;-35
2023/10/16 03:44:38;;;;;;;5.32;2.90;;;7.80;90.30;;;;;;5055062;28;20393;-36
2023/10/16 03:47:05;;;;;;;5.53;2.72;;;7.80;90.20;;;;;;5055013;28;20036;-36
2023/10/16 03:49:31;;;;;;;5.82;2.58;;;7.90;90.20;;;;;;5055041;28;20025;-34
2023/10/16 03:51:57;;;;;;;4.30;2.85;;;7.90;90.20;;;;;;5055048;28;20028;-35
2023/10/16 03:54:35;;;;;;;5.50;3.10;;;7.90;90.20;;;;;;5054755;28;20021;-34
2023/10/16 03:57:03;;;;;;;4.32;2.65;;;7.90;90.20;;;;;;5054767;28;20028;-35
2023/10/16 03:59:29;;;;;;;3.67;2.67;;;8.00;90.20;;;;;;5054870;28;20100;-36
2023/10/16 04:01:56;;;;;;;4.32;3.03;;;8.00;90.20;;;;;;5054835;28;20100;-36
2023/10/16 04:04:25;;;;;;;4.13;2.72;;;8.10;90.20;;;;;;5054924;28;20021;-34
2023/10/16 04:06:52;;;;;;;7.10;2.85;;;8.10;90.20;;;;;;5053238;28;20025;-34
2023/10/16 04:09:19;;;;;;;6.22;2.88;;;8.10;90.20;;;;;;5054724;28;20048;-36
2023/10/16 04:11:54;;;;;;;4.15;2.75;;;8.20;90.20;;;;;;5054920;28;20422;-36
2023/10/16 04:14:27;;;;;;;3.78;2.63;;;8.20;90.20;;;;;;5054829;28;20036;-33
2023/10/16 04:16:55;;;;;;;5.93;3.17;;;8.20;90.10;;;;;;5054528;28;20017;-35
2023/10/16 04:22:08;;;;;;;3.30;2.75;;;8.30;90.10;;;;;;5055034;28;20052;-33
2023/10/16 04:24:40;;;;;;;4.40;2.75;;;8.30;90.10;;;;;;5054636;28;20033;-35
2023/10/16 04:29:45;;;;;;;3.00;2.63;;;8.30;90.10;;;;;;5054366;28;20045;-34
2023/10/16 04:32:28;;;;;;;4.38;2.80;;;8.20;90.10;;;;;;5054700;28;20469;-33
2023/10/16 04:34:54;;;;;;;4.90;2.75;;;8.20;90.20;;;;;;5054540;28;20089;-35
2023/10/16 04:37:35;;;;;;;5.00;2.70;;;8.20;90.20;;;;;;5054117;28;20042;-34
2023/10/16 04:53:13;;;;;;;5.22;2.80;;;8.10;90.20;;;;;;5053385;28;20106;-33
2023/10/16 05:11:27;;;;;;;4.10;2.80;;;8.10;90.30;;;;;;5053623;28;20037;-34
2023/10/16 05:16:48;;;;;;;3.40;2.45;;;8.10;90.30;;;;;;5053419;28;20443;-34
2023/10/16 05:22:02;;;;;;;5.40;2.67;;;8.10;90.30;;;;;;5053723;28;20025;-39
2023/10/16 06:14:13;;;;;;;5.65;3.08;;;8.40;90.30;;;;;;5052463;28;20122;-35
2023/10/16 06:16:43;;;;;;;4.05;2.70;;;8.40;90.30;;;;;;5052820;28;20051;-35
2023/10/16 06:19:17;;;;;;;7.50;3.30;;;8.50;90.30;;;;;;5052496;28;20033;-36
2023/10/16 06:21:48;;;;;;;4.90;3.03;;;8.50;90.30;;;;;;5052402;28;20052;-35
2023/10/16 06:24:35;;;;;;;4.43;3.20;;;8.50;90.20;;;;;;5052332;28;20102;-33
2023/10/16 06:27:09;;;;;;;6.00;3.35;;;8.50;90.20;;;;;;5052651;28;20021;-36
2023/10/16 06:29:49;;;;;;;;;;;8.60;90.20;;;;;;5052469;28;20044;-36
2023/10/16 06:32:18;;;;;;;4.68;2.88;;;8.60;90.20;;;;;;5052659;28;19905;-36
2023/10/16 06:34:47;;;;;;;3.45;2.70;;;8.60;90.20;;;;;;5052101;28;20028;-34
2023/10/16 06:37:21;;;;;;;5.30;2.88;;;8.60;90.20;;;;;;5052421;28;20013;-35
2023/10/16 06:39:54;;;;;;;4.72;2.97;;;8.60;90.20;;;;;;5052698;28;20074;-36
2023/10/16 06:42:20;;;;;;;;;;;8.70;90.20;;;;;;5052969;28;20066;-35
2023/10/16 06:44:54;;;;;;;3.70;2.60;;;8.70;90.50;;;;;;5052285;28;19956;-35
2023/10/16 06:47:34;;;;;;;4.28;2.70;;;8.70;90.20;;;;;;5051944;28;20052;-34
2023/10/16 06:50:01;;;;;;;6.10;3.10;;;8.80;90.20;;;;;;5052363;28;20098;-35
2023/10/16 06:52:26;;;;;;;6.50;3.50;;;8.80;90.20;;;;;;5051970;28;20528;-35
2023/10/16 06:54:52;;;;;;;4.45;2.95;;;8.80;90.20;;;;;;5051798;28;20108;-35
2023/10/16 06:57:19;;;;;;;5.60;3.25;;;8.80;90.20;;;;;;5052191;28;20025;-36
2023/10/16 06:59:45;;;;;;;6.72;3.88;;;8.80;90.20;;;;;;5052696;28;20027;-36
2023/10/16 07:02:21;;;;;;;5.28;3.38;;;8.80;90.20;;;;;;5055940;28;20037;-34
2023/10/16 07:04:47;;;;;;;5.80;3.60;;;8.90;90.20;;;;;;5056067;28;20071;-36
2023/10/16 07:07:16;;;;;;;6.65;3.95;;;8.90;90.20;;;;;;5056224;28;20029;-33
2023/10/16 07:09:48;;;;;;;6.10;3.70;;;8.90;90.20;;;;;;5056301;28;20033;-35
2023/10/16 07:12:16;;;;;;;4.65;3.60;;;8.90;90.20;;;;;;5056083;28;20021;-35
2023/10/16 07:14:43;;;;;;;5.68;3.60;;;9.00;90.20;;;;;;5056062;28;20082;-35
2023/10/16 07:17:13;;;;;;;6.05;4.00;;;9.00;90.20;;;;;;5055803;28;20025;-35
2023/10/16 07:19:41;;;;;;;5.18;3.75;;;9.00;90.20;;;;;;5056010;28;20025;-36
2023/10/16 07:22:10;;;;;;;8.18;3.80;;;9.10;90.20;;;;;;5056014;28;20021;-35
2023/10/16 07:24:36;;;;;;;6.63;3.33;;;9.10;90.20;;;;;;5055668;28;20032;-35
2023/10/16 07:27:12;;;;;;;6.45;3.70;;;9.10;90.20;;;;;;5055404;28;20061;-34
2023/10/16 07:29:41;;;;;;;5.45;3.60;;;9.10;90.20;;;;;;5055424;28;20048;-36
2023/10/16 07:32:09;;;;;;;5.60;3.80;;;9.10;90.20;;;;;;5055634;28;20428;-36
2023/10/16 07:34:37;;;;;;;8.00;3.75;;;9.10;90.30;;;;;;5055241;28;20029;-36
2023/10/16 07:37:07;;;;;;;7.20;3.58;;;9.10;90.30;;;;;;5055112;28;20112;-35
2023/10/16 07:39:34;;;;;;;4.97;3.60;;;9.20;90.30;;;;;;5055545;28;20076;-35
2023/10/16 07:42:02;;;;;;;4.80;3.38;;;9.20;90.30;;;;;;5055293;28;20021;-35
2023/10/16 07:44:28;;;;;;;6.32;3.25;;;9.20;90.30;;;;;;5055384;28;20025;-37
2023/10/16 07:46:54;;;;;;;6.88;3.28;;;9.30;90.30;;;;;;5055338;28;20491;-36
2023/10/16 07:49:25;;;;;;;6.25;3.78;;;9.40;90.30;;;;;;5054599;28;20041;-36
2023/10/16 07:51:52;;;;;;;7.22;3.70;;;9.40;90.20;;;;;;5054701;28;20021;-37
2023/10/16 07:54:21;;;;;;;7.20;4.03;;;9.40;90.20;;;;;;5054592;28;20033;-37
2023/10/16 07:56:50;;;;;;;5.45;3.60;;;9.50;90.20;;;;;;5054562;28;20127;-35
2023/10/16 07:59:19;;;;;;;5.15;3.80;;;9.50;90.10;;;;;;5054708;28;20082;-36
2023/10/16 08:01:48;;;;;;;7.28;4.28;;;9.60;90.10;;;;;;5055182;28;20041;-36
2023/10/16 08:05:03;;;;;;;4.70;3.55;;;9.60;90.00;;;;;;5054903;28;20025;-34
2023/10/16 08:07:04;;;;;;;5.80;3.58;;;9.60;90.00;;;;;;5054433;28;20447;-36
2023/10/16 08:14:54;;;;;;;8.48;3.70;;;9.80;89.90;;;;;;5053293;28;20094;-37
2023/10/16 08:17:23;;;;;;;6.53;3.63;;;9.90;89.90;;;;;;5054017;28;20444;-39
2023/10/16 08:19:50;;;;;;;5.85;3.70;;;10.00;89.80;;;;;;5053934;28;20092;-36
2023/10/16 08:22:16;;;;;;;6.72;3.90;;;10.10;89.70;;;;;;5054259;28;20427;-35
2023/10/16 08:24:43;;;;;;;4.88;3.35;;;10.10;89.60;;;;;;5053891;28;20025;-35
2023/10/16 08:33:06;;;;;;;6.05;4.00;;;10.40;89.20;;;;;;5054032;28;20048;-36
2023/10/16 08:35:41;;;;;;;6.95;3.47;;;10.40;89.10;;;;;;5053765;28;20531;-36
2023/10/16 08:38:20;;;;;;;5.35;3.30;;;10.50;89.10;;;;;;5053906;28;20106;-36
2023/10/16 08:40:57;;;;;;;7.00;3.17;;;10.60;89.00;;;;;;5053815;28;20033;-36
2023/10/16 08:46:18;;;;;;;3.88;3.15;;;10.70;88.80;;;;;;5053718;28;20040;-33
2023/10/16 08:48:45;;;;;;;8.75;3.25;;;10.80;88.70;;;;;;5053859;28;20021;-34
2023/10/16 08:51:12;;;;;;;6.43;2.92;;;10.80;88.60;;;;;;5053674;28;20455;-35
2023/10/16 08:53:42;;;;;;;5.93;2.92;;;10.90;88.60;;;;;;5053205;28;20036;-36
2023/10/16 08:56:07;;;;;;;5.63;2.67;;;11.00;88.50;;;;;;5053029;28;20044;-35
2023/10/16 08:58:42;;;;;;;3.03;2.08;;;11.10;88.40;;;;;;5053191;28;20024;-36
2023/10/16 09:01:09;;;;;;;2.25;1.60;;;11.20;88.20;;;;;;5053311;28;20023;-37
2023/10/16 09:03:38;;;;;;;2.97;1.42;;;11.30;88.00;;;;;;5053431;28;20389;-35
2023/10/16 09:06:04;;;;;;;3.55;1.30;;;11.30;87.70;;;;;;5053077;28;20029;-36
2023/10/16 09:08:33;;;;;;;2.63;1.27;;;11.40;87.50;;;;;;5053311;28;20021;-36
2023/10/16 09:11:05;;;;;;;1.85;1.20;;;11.50;87.30;;;;;;5053334;28;20060;-37
2023/10/16 09:13:38;;;;;;;2.97;1.40;;;11.50;86.90;;;;;;5053118;28;20116;-36
2023/10/16 09:16:11;;;;;;;3.47;1.40;;;11.50;86.70;;;;;;5053015;28;20063;-34
2023/10/16 09:18:37;;;;;;;2.55;1.23;;;11.50;86.60;;;;;;5053078;28;20036;-36
2023/10/16 09:21:13;;;;;;;3.72;1.42;;;11.60;86.60;;;;;;5052712;28;20067;-35
2023/10/16 09:23:51;;;;;;;1.63;1.20;;;11.60;86.30;;;;;;5051751;28;20021;-36
2023/10/16 09:26:17;;;;;;;4.82;1.98;;;11.70;86.30;;;;;;5052696;28;20155;-37
2023/10/16 09:28:48;;;;;;;1.77;1.42;;;11.80;85.80;;;;;;5052623;28;20412;-35
2023/10/16 09:31:18;;;;;;;4.97;1.50;;;11.80;85.80;;;;;;5052866;28;20053;-34
2023/10/16 09:33:48;;;;;;;3.90;1.40;;;11.90;85.40;;;;;;5052908;28;20102;-35
2023/10/16 09:36:18;;;;;;;2.72;1.30;;;11.90;85.20;;;;;;5052670;28;20585;-36
2023/10/16 09:38:56;;;;;;;2.42;1.33;;;11.90;85.20;;;;;;5052441;28;20017;-34
2023/10/16 09:49:15;;;;;;;1.65;1.20;;;12.00;85.00;;;;;;5052757;28;20044;-34
2023/10/16 09:51:44;;;;;;;2.22;1.17;;;12.10;85.00;;;;;;5052262;28;20066;-35
2023/10/16 09:54:11;;;;;;;3.22;1.17;;;12.20;85.00;;;;;;5052288;28;20036;-36
2023/10/16 09:56:39;;;;;;;3.35;1.25;;;12.30;84.90;;;;;;5052344;28;20033;-36
2023/10/16 09:59:26;;;;;;;3.95;1.20;;;12.40;84.70;;;;;;5052479;28;20017;-35
2023/10/16 10:01:55;;;;;;;3.38;1.00;;;12.50;85.00;;;;;;5052451;28;20025;-36
2023/10/16 10:04:24;;;;;;;2.35;0.90;;;12.50;84.10;;;;;;5052414;28;20396;-36
2023/10/16 10:06:59;;;;;;;1.38;0.82;;;12.60;83.90;;;;;;5051959;28;20021;-41
2023/10/16 10:09:45;;;;;;;3.42;0.80;;;12.70;83.60;;;;;;5052370;28;20024;-35
2023/10/16 10:12:42;;;;;;;4.53;1.20;;;12.70;83.60;;;;;;5052409;28;20029;-35
2023/10/16 10:15:40;;;;;;;1.88;0.77;;;12.80;83.50;;;;;;5052157;28;20356;-36
2023/10/16 10:21:27;;;;;;;2.50;0.50;;;12.90;83.20;;;;;;5049577;28;20068;-33
2023/10/16 10:24:00;;;;;;;1.20;0.52;;;13.00;82.50;;;;;;5049437;28;20032;-35
2023/10/16 10:26:26;;;;;;;2.03;0.57;;;13.00;82.40;;;;;;5051053;28;20041;-37
2023/10/16 10:29:09;;;;;;;4.00;0.80;;;13.00;83.00;;;;;;5051766;28;20103;-36
2023/10/16 10:31:56;;;;;;;0.85;0.55;;;13.00;82.30;;;;;;5051761;28;20059;-36
2023/10/16 10:34:27;;;;;;;4.45;0.60;;;13.00;82.30;;;;;;5051205;28;20040;-37
2023/10/16 10:36:53;;;;;;;1.10;0.60;;;13.00;82.10;;;;;;5051938;28;20029;-36
2023/10/16 10:39:38;;;;;;;2.60;0.70;;;13.00;82.00;;;;;;5051680;28;20112;-36
2023/10/16 10:42:05;;;;;;;1.23;0.63;;;13.10;81.80;;;;;;5051979;28;20075;-35
2023/10/16 10:44:43;;;;;;;1.33;0.52;;;13.20;81.60;;;;;;5051543;28;20497;-36
2023/10/16 10:47:20;;;;;;;1.23;0.50;;;13.20;81.50;;;;;;5051827;28;20107;-37
2023/10/16 10:49:46;;;;;;;1.42;0.45;;;13.30;81.20;;;;;;5050329;28;20091;-36
2023/10/16 10:52:16;;;;;;;2.30;0.55;;;13.40;81.00;;;;;;5051708;28;20025;-36
2023/10/16 10:54:42;;;;;;;1.73;0.68;;;13.50;80.60;;;;;;5051163;28;20549;-36
2023/10/16 10:57:20;;;;;;;1.42;0.80;;;13.60;80.30;;;;;;5051638;28;20029;-37
2023/10/16 10:59:54;;;;;;;1.80;0.57;;;13.70;80.20;;;;;;5051732;28;20147;-36
2023/10/16 11:02:22;;;;;;;1.30;0.70;;;13.70;80.10;;;;;;5051347;28;20025;-36
2023/10/16 11:04:58;;;;;;;0.57;0.57;;;13.80;79.80;;;;;;5049966;28;20064;-36
2023/10/16 11:07:39;;;;;;;1.58;0.57;;;13.70;79.50;;;;;;5051198;28;20048;-36
2023/10/16 11:10:06;;;;;;;1.35;0.60;;;13.80;79.60;;;;;;5051575;28;20116;-35
2023/10/16 11:12:32;;;;;;;2.47;0.50;;;13.70;79.20;;;;;;5051335;28;20037;-36
2023/10/16 11:15:01;;;;;;;2.78;0.70;;;13.70;79.10;;;;;;5051219;28;20044;-36
2023/10/16 11:17:40;;;;;;;1.90;0.55;;;13.70;79.00;;;;;;5051391;28;20036;-36
2023/10/16 11:22:45;;;;;;;1.85;0.45;;;13.70;78.60;;;;;;5051565;28;20033;-34
2023/10/16 11:25:14;;;;;;;1.05;0.55;;;13.60;78.20;;;;;;5051112;28;20108;-35
2023/10/16 11:27:44;;;;;;;4.05;0.60;;;13.60;78.30;;;;;;5049804;28;20066;-37
2023/10/16 11:30:14;;;;;;;4.72;0.90;;;13.50;78.00;;;;;;5050987;28;20052;-36
2023/10/16 11:32:47;;;;;;;2.05;0.60;;;13.50;78.20;;;;;;5051421;28;20186;-38
2023/10/16 11:35:17;;;;;;;1.73;0.65;;;13.50;78.30;;;;;;5051344;28;20138;-36
2023/10/16 11:37:59;;;;;;;2.53;0.68;;;13.60;78.40;;;;;;5051231;28;20497;-36
2023/10/16 11:40:32;;;;;;;1.15;0.60;;;13.60;78.20;;;;;;5050884;28;20022;-35
2023/10/16 11:43:02;;;;;;;1.67;0.60;;;13.60;78.20;;;;;;5050975;28;20032;-36
2023/10/16 11:45:32;;;;;;;2.15;0.50;;;13.60;78.10;;;;;;5051045;28;20029;-37
2023/10/16 11:48:21;;;;;;;1.38;0.47;;;13.70;77.80;;;;;;5051980;28;20021;-35
2023/10/16 11:50:58;;;;;;;2.17;0.50;;;13.70;77.60;;;;;;5054800;28;20113;-36
2023/10/16 11:53:25;;;;;;;1.65;0.40;;;13.80;77.60;;;;;;5054515;28;20054;-36
2023/10/16 11:55:51;;;;;;;1.05;0.47;;;13.80;77.40;;;;;;5054536;28;20104;-36
2023/10/16 11:58:17;;;;;;;2.50;0.77;;;13.90;77.10;;;;;;5054495;28;20064;-35
2023/10/16 12:01:08;;;;;;;1.40;0.70;;;14.00;77.10;;;;;;5054523;28;20028;-36
2023/10/16 12:03:37;;;;;;;2.03;0.55;;;14.10;77.00;;;;;;5054165;28;20025;-36
2023/10/16 12:06:13;;;;;;;1.98;0.70;;;14.10;76.80;;;;;;5054278;28;20481;-36
2023/10/16 12:08:40;;;;;;;2.88;0.73;;;14.20;76.80;;;;;;5054465;28;20036;-37
2023/10/16 12:11:07;;;;;;;1.50;0.68;;;14.20;76.60;;;;;;5054414;28;20116;-36
2023/10/16 12:13:33;;;;;;;2.20;0.88;;;14.10;76.50;;;;;;5053953;28;20029;-33
2023/10/16 12:15:59;;;;;;;4.35;1.00;;;14.10;76.60;;;;;;5054115;28;20025;-36
2023/10/16 12:18:29;;;;;;;1.85;0.60;;;14.10;76.60;;;;;;5054224;28;20036;-36
2023/10/16 12:20:59;;;;;;;0.52;0.52;;;14.10;76.30;;;;;;5054150;28;20488;-36
2023/10/16 12:23:25;;;;;;;1.50;0.60;;;14.00;76.50;;;;;;5053748;28;20052;-36
2023/10/16 12:25:50;;;;;;;4.07;0.60;;;14.00;76.40;;;;;;5053864;28;20436;-36
2023/10/16 12:28:16;;;;;;;1.55;0.70;;;14.10;76.50;;;;;;5053642;28;20026;-36
2023/10/16 12:30:42;;;;;;;1.67;0.52;;;14.10;76.50;;;;;;5053833;28;20029;-35
2023/10/16 12:33:08;;;;;;;2.60;0.45;;;14.10;76.50;;;;;;5053955;28;20477;-35
2023/10/16 12:35:36;;;;;;;2.80;0.75;;;14.20;76.30;;;;;;5053715;28;20144;-36
2023/10/16 12:38:05;;;;;;;1.05;0.45;;;14.20;76.00;;;;;;5053657;28;20029;-35
2023/10/16 12:40:34;;;;;;;2.33;0.60;;;14.30;75.90;;;;;;5053718;28;20029;-37
2023/10/16 12:43:00;;;;;;;2.47;0.80;;;14.30;75.80;;;;;;5053837;28;20025;-37
2023/10/16 12:45:27;;;;;;;2.22;0.70;;;14.40;75.70;;;;;;5053469;28;20125;-37
2023/10/16 12:47:57;;;;;;;1.85;0.60;;;14.50;75.60;;;;;;5053230;28;20056;-36
2023/10/16 12:50:26;;;;;;;1.73;0.60;;;14.50;76.10;;;;;;5053599;28;20025;-36
2023/10/16 12:53:00;;;;;;;1.20;0.63;;;14.60;75.40;;;;;;5053140;28;20112;-36
2023/10/16 12:55:26;;;;;;;;;;;14.60;75.10;;;;;;5053535;28;20040;-37
2023/10/16 12:57:53;;;;;;;1.00;0.50;;;14.70;75.00;;;;;;5053396;28;19909;-35
2023/10/16 13:00:20;;;;;;;1.33;0.50;;;14.60;75.00;;;;;;5053536;28;20045;-36
2023/10/16 13:02:55;;;;;;;4.28;0.70;;;14.60;74.80;;;;;;5053505;28;20049;-34
2023/10/16 13:05:30;;;;;;;1.25;0.65;;;14.60;74.70;;;;;;5053534;28;20100;-36
2023/10/16 13:07:56;;;;;;;1.38;0.60;;;14.60;74.70;;;;;;5053253;28;20366;-36
2023/10/16 13:10:26;;;;;;;2.08;0.55;;;14.60;74.70;;;;;;5052913;28;20036;-35
2023/10/16 13:12:53;;;;;;;1.95;0.70;;;14.50;74.60;;;;;;5053293;28;20021;-35
2023/10/16 13:15:24;;;;;;;4.13;1.30;;;14.40;74.20;;;;;;5052854;28;20064;-36
2023/10/16 13:17:53;;;;;;;2.25;0.80;;;14.40;74.30;;;;;;5053018;28;20048;-36
2023/10/16 13:20:18;;;;;;;2.60;0.70;;;14.40;74.20;;;;;;5053086;28;20032;-36
2023/10/16 13:22:49;;;;;;;1.58;0.65;;;14.30;74.10;;;;;;5052824;28;20398;-36
2023/10/16 13:25:16;;;;;;;3.00;0.68;;;14.30;74.10;;;;;;5053062;28;20489;-34
2023/10/16 13:27:43;;;;;;;2.20;0.80;;;14.30;74.20;;;;;;5052878;28;20025;-35
2023/10/16 13:30:11;;;;;;;4.22;0.80;;;14.40;74.20;;;;;;5051385;28;20063;-36
2023/10/16 13:32:41;;;;;;;4.32;0.90;;;14.40;74.10;;;;;;5052545;28;20033;-36
2023/10/16 13:35:12;;;;;;;1.52;0.70;;;14.40;74.00;;;;;;5052701;28;20029;-36
2023/10/16 13:37:42;;;;;;;1.33;0.50;;;14.40;73.90;;;;;;5052631;28;20025;-36
2023/10/16 13:40:15;;;;;;;1.92;0.60;;;14.30;73.80;;;;;;5052492;28;20025;-37
2023/10/16 13:42:41;;;;;;;;;;;14.30;73.70;;;;;;5052856;28;20055;-36
2023/10/16 13:45:12;;;;;;;3.03;0.60;;;14.30;73.50;;;;;;5052610;28;19982;-36
2023/10/16 13:47:42;;;;;;;3.33;0.55;;;14.30;74.00;;;;;;5051846;28;20036;-36
2023/10/16 13:50:24;;;;;;;3.55;0.80;;;14.30;74.00;;;;;;5052559;28;20033;-37
2023/10/16 13:52:54;;;;;;;0.73;0.60;;;14.30;74.00;;;;;;5052045;28;20112;-36
2023/10/16 13:55:22;;;;;;;1.23;0.60;;;14.30;74.10;;;;;;5051935;28;20029;-36
2023/10/16 13:57:49;;;;;;;2.97;1.35;;;14.40;74.20;;;;;;5052035;28;20075;-35
2023/10/16 14:00:35;;;;;;;1.83;1.08;;;14.40;74.00;;;;;;5051995;28;20064;-34
2023/10/16 14:03:09;;;;;;;2.75;1.60;;;14.40;73.90;;;;;;5052102;28;20021;-36
2023/10/16 14:05:44;;;;;;;2.70;1.00;;;14.50;74.00;;;;;;5052208;28;20036;-35
2023/10/16 14:08:10;;;;;;;2.22;0.80;;;14.50;73.80;;;;;;5052364;28;20112;-36
2023/10/16 14:10:45;;;;;;;2.60;1.15;;;14.50;73.70;;;;;;5051484;28;20567;-35
2023/10/16 14:13:18;;;;;;;2.00;0.93;;;14.50;73.70;;;;;;5052260;28;20391;-36
2023/10/16 14:15:47;;;;;;;1.92;0.80;;;14.60;73.70;;;;;;5052153;28;20021;-36
2023/10/16 14:18:24;;;;;;;3.15;0.60;;;14.60;73.50;;;;;;5051663;28;20031;-36
2023/10/16 14:20:51;;;;;;;1.83;0.70;;;14.60;73.20;;;;;;5050348;28;20025;-37
2023/10/16 14:23:18;;;;;;;1.98;0.70;;;14.60;73.30;;;;;;5051913;28;20021;-36
2023/10/16 14:25:47;;;;;;;2.30;0.90;;;14.60;73.30;;;;;;5051839;28;20054;-37
2023/10/16 14:31:08;;;;;;;1.42;0.60;;;14.50;73.50;;;;;;5050645;28;20056;-37
2023/10/16 14:33:34;;;;;;;2.75;1.10;;;14.60;73.60;;;;;;5051782;28;20067;-36
2023/10/16 14:36:02;;;;;;;2.80;0.82;;;14.50;73.50;;;;;;5051883;28;20550;-36
2023/10/16 14:38:28;;;;;;;2.30;0.80;;;14.50;73.60;;;;;;5051036;28;20045;-36
2023/10/16 14:40:55;;;;;;;3.10;0.68;;;14.50;73.70;;;;;;5051669;28;20539;-36
2023/10/16 14:43:22;;;;;;;1.08;0.70;;;14.40;73.70;;;;;;5051887;28;20017;-37
2023/10/16 14:45:48;;;;;;;1.60;0.57;;;14.40;73.70;;;;;;5051769;28;20428;-36
2023/10/16 14:48:17;;;;;;;1.60;0.80;;;14.40;73.70;;;;;;5051229;28;20044;-35
2023/10/16 14:50:45;;;;;;;2.03;0.88;;;14.30;73.70;;;;;;5051630;28;20029;-35
2023/10/16 14:53:12;;;;;;;2.75;0.63;;;14.40;73.80;;;;;;5051458;28;20032;-36
2023/10/16 14:55:39;;;;;;;2.47;1.20;;;14.30;73.80;;;;;;5051102;28;20033;-35
2023/10/16 14:58:06;;;;;;;3.90;1.20;;;14.30;73.90;;;;;;5051148;28;20408;-35
2023/10/16 15:00:37;;;;;;;2.67;1.75;;;14.30;73.90;;;;;;5051731;28;20044;-37
2023/10/16 15:03:04;;;;;;;2.05;1.10;;;14.30;73.70;;;;;;5051406;28;20030;-36
2023/10/16 15:05:29;;;;;;;1.85;0.95;;;14.30;73.60;;;;;;5051280;28;20033;-35
2023/10/16 15:07:58;;;;;;;4.18;1.70;;;14.30;73.20;;;;;;5051233;28;20036;-35
2023/10/16 15:10:25;;;;;;;2.78;1.42;;;14.20;73.20;;;;;;5051592;28;20116;-35
2023/10/16 15:12:51;;;;;;;2.95;1.42;;;14.10;73.10;;;;;;5051681;28;20420;-37